MET'MAP v2.0
soon released !

Expected late october,
this new version will be
more efficient, smarter,
and hosted on a brand new
server x3 powerfull...
...and still free !


Not compatible ?
Try the mobile version !

LOG IN : | Subscribe | Disclaimer | Who is Orbifly ? |
ICAO code :

TAF - ESGR Skovde - 17 Feb 2020 17:22 UTC - Data Source NOAA   


- Airport Elevation : 324 ft
- IATA code : KVB
- No reported NOTAMs.


ESGR - Skovde

Latest METAR recorded : 2015/08/11 07:50 ESGR 110750Z AUTO 17005KT 9999 BKN064/// BKN100/// 18/15 Q1018
TAF N/A

Source NOAA


MET'MAP, your aeronautical weather chart ! - Copyright ORBIFLY December 2007

Programming & Development : Alexandra Zaïnal
Co-Developer : Marc-Olivier Méhu
Technical & hardware support : Manuel Goepfert
Concept & Financing : Baudouin d'Aumeries